Flight Track Log - Related Links

Times and Time Zones

All times are in EDT time to prevent confusion due to time zone crossing. See the DAL1741 flight status page for this flight to view local times or setup timezone preferences in your user account.

Time Position Orientation Groundspeed Altitude Reporting Facility
EDT Latitude Longitude Course Direction KTS MPH feet Rate Location/Type
Sat 01:33:13 PM 40.8128 -112.0000 301° West 158 182 5,100  Level Salt Lake Center
Sat 01:34:31 PM 40.8461 -112.0728 293° West 222 255 6,700 1,813 Climbing Salt Lake Center
Sat 01:35:32 PM 40.8750 -112.1617 306° West 256 295 9,300 2,780 Climbing Salt Lake Center
Sat 01:36:34 PM 40.9214 -112.2469 307° West 283 326 12,400 2,903 Climbing Salt Lake Center
Sat 01:37:36 PM 40.9692 -112.3303 308° West 281 323 15,300 2,565 Climbing Salt Lake Center
Sat 01:38:38 PM 41.0192 -112.4167 308° West 289 333 17,700 1,463 Climbing Salt Lake Center
Sat 01:39:39 PM 41.0756 -112.5133 307° West 337 388 18,300 1,024 Climbing Salt Lake Center
Sat 01:40:41 PM 41.1389 -112.6236 308° West 369 425 19,800 1,790 Climbing Salt Lake Center
Sat 01:41:43 PM 41.2153 -112.7553 307° West 380 437 22,000 1,790 Climbing Salt Lake Center
Sat 01:42:45 PM 41.2817 -112.8731 307° West 392 451 23,500 1,317 Climbing Salt Lake Center
Sat 01:43:46 PM 41.3506 -112.9936 306° West 403 464 24,700 1,268 Climbing Salt Lake Center
Sat 01:44:48 PM 41.4183 -113.1167 307° West 407 468 26,100 1,161 Climbing Salt Lake Center
Sat 01:45:50 PM 41.4886 -113.2428 307° West 415 478 27,100 871 Climbing Salt Lake Center
Sat 01:46:52 PM 41.5611 -113.3694 307° West 422 486 27,900 823 Climbing Salt Lake Center
Sat 01:47:54 PM 41.6336 -113.4969 307° West 426 490 28,800 919 Climbing Salt Lake Center
Sat 01:48:56 PM 41.7061 -113.6261 307° West 428 493 29,800 1,024 Climbing Salt Lake Center
Sat 01:49:57 PM 41.7806 -113.7581 306° West 431 496 30,900 1,220 Climbing Salt Lake Center
Sat 01:50:59 PM 41.8614 -113.9067 306° West 427 491 32,300 1,258 Climbing Salt Lake Center
Sat 01:52:01 PM 41.9314 -114.0344 307° West 424 488 33,500 1,016 Climbing Salt Lake Center
Sat 01:53:03 PM 42.0011 -114.1606 306° West 419 482 34,400 823 Climbing Salt Lake Center
Sat 01:54:05 PM 42.0708 -114.2878 307° West 418 481 35,200 726 Climbing Salt Lake Center
Sat 01:55:07 PM 42.1419 -114.4158 307° West 422 486 35,900 387 Climbing Salt Lake Center
Sat 01:56:09 PM 42.2122 -114.5431 306° West 420 483 36,000 48 Climbing Salt Lake Center
Sat 01:57:11 PM 42.2836 -114.6775 306° West 433 498 36,000  Level Salt Lake Center
Sat 01:58:13 PM 42.3569 -114.8139 305° West 442 509 36,000  Level Salt Lake Center
Sat 01:59:15 PM 42.4350 -114.9636 306° West 445 512 36,000  Level Salt Lake Center
Sat 02:00:16 PM 42.5136 -115.1128 306° West 438 504 36,000  Level Salt Lake Center
Sat 02:01:18 PM 42.5806 -115.2381 306° West 430 495 36,000  Level Salt Lake Center
Sat 02:02:20 PM 42.6469 -115.3644 306° West 429 494 36,000  Level Salt Lake Center
Sat 02:03:22 PM 42.7250 -115.5125 305° West 432 497 36,000  Level Salt Lake Center
Sat 02:04:24 PM 42.7919 -115.6414 305° West 434 499 36,000  Level Salt Lake Center
Sat 02:05:26 PM 42.8703 -115.7931 305° West 436 502 36,000  Level Salt Lake Center
Sat 02:06:28 PM 42.9367 -115.9219 305° West 434 499 36,000  Level Salt Lake Center
Sat 02:07:30 PM 43.0144 -116.0736 305° West 435 501 36,000  Level Salt Lake Center
Sat 02:08:32 PM 43.0817 -116.2044 305° West 438 504 36,000  Level Salt Lake Center
Sat 02:09:34 PM 43.1600 -116.3597 305° West 441 507 36,000 49 Level Salt Lake Center
Sat 02:10:35 PM 43.2264 -116.4908 305° West 438 504 36,100  Climbing Salt Lake Center
Sat 02:11:37 PM 43.2917 -116.6206 305° West 432 497 36,000 -48 Descending Salt Lake Center
Sat 02:12:39 PM 43.3658 -116.7692 305° West 424 488 36,000  Level Salt Lake Center
Sat 02:13:41 PM 43.4300 -116.8964 305° West 422 486 36,000  Level Salt Lake Center
Sat 02:14:43 PM 43.5047 -117.0458 304° West 423 487 36,000  Level Salt Lake Center
Sat 02:15:45 PM 43.5692 -117.1758 304° West 426 490 36,000 48 Level Salt Lake Center
Sat 02:16:47 PM 43.6433 -117.3272 304° West 425 489 36,100  Climbing Salt Lake Center
Sat 02:17:48 PM 43.7069 -117.4572 304° West 425 489 36,000 -49 Descending Salt Lake Center
Sat 02:18:50 PM 43.7703 -117.5875 304° West 425 489 36,000  Level Salt Lake Center
Sat 02:19:52 PM 43.8436 -117.7383 304° West 423 487 36,000  Level Salt Lake Center
Sat 02:20:54 PM 43.9061 -117.8672 304° West 420 483 36,000  Level Salt Lake Center
Sat 02:21:56 PM 43.9789 -118.0186 305° West 421 484 36,000  Level Salt Lake Center
Sat 02:22:45 PM 44.0328 -118.1275 303° West 423 487 36,000  Level Seattle Center
Sat 02:23:46 PM 44.0950 -118.2592 304° West 425 489 36,000  Level Seattle Center
Sat 02:24:47 PM 44.1594 -118.3919 302° West 425 489 36,000  Level Seattle Center
Sat 02:25:48 PM 44.2208 -118.5269 303° West 419 482 36,000  Level Seattle Center
Sat 02:26:49 PM 44.2836 -118.6606 304° West 415 478 36,000  Level Seattle Center
Sat 02:27:51 PM 44.3467 -118.7939 304° West 415 478 36,000  Level Seattle Center
Sat 02:28:52 PM 44.4233 -118.9539 304° West 415 478 36,000  Level Seattle Center
Sat 02:29:53 PM 44.4875 -119.0881 302° West 416 479 36,000  Level Seattle Center
Sat 02:30:54 PM 44.5492 -119.2256 303° West 418 481 36,000  Level Seattle Center
Sat 02:31:55 PM 44.6119 -119.3625 303° West 419 482 36,000  Level Seattle Center
Sat 02:32:57 PM 44.6750 -119.5003 302° West 420 483 36,000  Level Seattle Center
Sat 02:33:58 PM 44.7375 -119.6386 303° West 421 484 36,000  Level Seattle Center
Sat 02:34:59 PM 44.8011 -119.7772 302° West 422 486 36,000  Level Seattle Center
Sat 02:36:00 PM 44.8633 -119.9172 303° West 419 482 36,000  Level Seattle Center
Sat 02:37:02 PM 44.9328 -120.0706 302° West 420 483 36,000  Level Seattle Center
Sat 02:38:03 PM 44.9903 -120.2017 302° West 417 480 36,000  Level Seattle Center
Sat 02:39:04 PM 45.0511 -120.3389 302° West 414 476 36,000 -246 Level Seattle Center
Sat 02:40:05 PM 45.1111 -120.4750 302° West 411 473 35,500 -1,610 Descending Seattle Center
Sat 02:41:07 PM 45.1825 -120.6375 302° West 408 470 32,700 -3,171 Descending Seattle Center
Sat 02:42:08 PM 45.2419 -120.7733 302° West 407 468 29,000 -3,246 Descending Seattle Center
Sat 02:43:09 PM 45.3008 -120.9081 301° West 405 466 26,100 -2,705 Descending Seattle Center
Sat 02:44:10 PM 45.3564 -121.0375 301° West 392 451 23,500 -2,488 Descending Seattle Center
Sat 02:45:12 PM 45.4089 -121.1597 287° West 370 426 21,000 -2,390 Descending Seattle Center
Sat 02:46:13 PM 45.4381 -121.2931 280° West 362 417 18,600 -2,059 Descending Seattle Center
Sat 02:46:54 PM 45.4517 -121.4050 280° West 368 423 17,500 -1,941 Descending Seattle Center
Sat 02:47:55 PM 45.4703 -121.5561 281° West 363 418 15,300 -2,115 Descending Seattle Center
Sat 02:48:56 PM 45.4894 -121.6942 279° West 355 409 13,200 -1,721 Descending Seattle Center
Sat 02:49:57 PM 45.5039 -121.8219 267° West 338 389 11,800 -1,339 Descending Seattle Center
Sat 02:50:57 PM 45.4994 -121.9372 267° West 290 334 10,500 -1,878 Descending Seattle Center
Sat 02:51:52 PM 45.4956 -122.0367 267° West 271 312 8,200 -2,431 Descending Seattle Center
Sat 02:52:53 PM 45.4919 -122.1389 265° West 265 305 5,800 -1,398 Descending Seattle Center
Sat 02:54:05 PM 45.4858 -122.2486 279° West 219 252 5,100 -756 Descending Seattle Center
Sat 02:55:00 PM 45.4931 -122.3142 290° West 191 220 4,200 -983 Descending Seattle Center
Sat 02:56:01 PM 45.5083 -122.3756 298° West 167 192 3,200 -893 Descending Seattle Center
Sat 02:57:01 PM 45.5264 -122.4231 299° West 139 160 2,400 -744 Descending Seattle Center
Sat 02:58:02 PM 45.5439 -122.4678 299° West 135 155 1,700 -694 Descending Seattle Center
Sat 02:59:02 PM 45.5622 -122.5153 300° West 133 153 1,000 -756 Descending Seattle Center
Sat 03:00:09 PM 45.5836 -122.5675 300° West 133 153 100 -806 Descending Seattle Center

Login

Don't have an account? Register now (free) for customized features, flight alerts, and more!